sensor_id;sensor_type;location;lat;lon;timestamp;temperature;humidity
11043;DHT22;5574;48.786;10.120;2022-07-04T00:01:26;20.20;95.50
11043;DHT22;5574;48.786;10.120;2022-07-04T00:03:53;20.20;95.70
11043;DHT22;5574;48.786;10.120;2022-07-04T00:06:20;20.20;95.90
11043;DHT22;5574;48.786;10.120;2022-07-04T00:08:46;20.20;95.80
11043;DHT22;5574;48.786;10.120;2022-07-04T00:11:13;20.20;95.30
11043;DHT22;5574;48.786;10.120;2022-07-04T00:13:41;20.20;95.60
11043;DHT22;5574;48.786;10.120;2022-07-04T00:16:08;20.20;95.70
11043;DHT22;5574;48.786;10.120;2022-07-04T00:18:34;20.20;95.90
11043;DHT22;5574;48.786;10.120;2022-07-04T00:21:01;20.30;95.80
11043;DHT22;5574;48.786;10.120;2022-07-04T00:23:27;20.30;95.90
11043;DHT22;5574;48.786;10.120;2022-07-04T00:25:54;20.20;96.30
11043;DHT22;5574;48.786;10.120;2022-07-04T00:28:21;20.20;96.40
11043;DHT22;5574;48.786;10.120;2022-07-04T00:30:49;20.20;96.70
11043;DHT22;5574;48.786;10.120;2022-07-04T00:33:15;20.20;96.40
11043;DHT22;5574;48.786;10.120;2022-07-04T00:35:42;20.10;96.40
11043;DHT22;5574;48.786;10.120;2022-07-04T00:38:09;20.10;96.10
11043;DHT22;5574;48.786;10.120;2022-07-04T00:40:35;20.10;95.60
11043;DHT22;5574;48.786;10.120;2022-07-04T00:43:04;20.10;95.60
11043;DHT22;5574;48.786;10.120;2022-07-04T00:45:31;20.10;95.70
11043;DHT22;5574;48.786;10.120;2022-07-04T00:47:59;20.10;96.00
11043;DHT22;5574;48.786;10.120;2022-07-04T00:50:26;20.00;96.20
11043;DHT22;5574;48.786;10.120;2022-07-04T00:52:53;19.90;96.40
11043;DHT22;5574;48.786;10.120;2022-07-04T00:55:22;19.80;96.60
11043;DHT22;5574;48.786;10.120;2022-07-04T00:57:49;19.80;96.70
11043;DHT22;5574;48.786;10.120;2022-07-04T01:00:17;19.80;97.50
11043;DHT22;5574;48.786;10.120;2022-07-04T01:02:44;19.80;97.50
11043;DHT22;5574;48.786;10.120;2022-07-04T01:05:13;19.80;97.00
11043;DHT22;5574;48.786;10.120;2022-07-04T01:07:40;19.80;96.80
11043;DHT22;5574;48.786;10.120;2022-07-04T01:10:07;19.80;96.60
11043;DHT22;5574;48.786;10.120;2022-07-04T01:12:35;19.80;96.80
11043;DHT22;5574;48.786;10.120;2022-07-04T01:15:02;19.70;96.80
11043;DHT22;5574;48.786;10.120;2022-07-04T01:17:29;19.70;96.70
11043;DHT22;5574;48.786;10.120;2022-07-04T01:19:56;19.70;96.60
11043;DHT22;5574;48.786;10.120;2022-07-04T01:22:24;19.70;96.70
11043;DHT22;5574;48.786;10.120;2022-07-04T01:24:51;19.60;96.70
11043;DHT22;5574;48.786;10.120;2022-07-04T01:27:18;19.60;96.80
11043;DHT22;5574;48.786;10.120;2022-07-04T01:29:44;19.60;97.10
11043;DHT22;5574;48.786;10.120;2022-07-04T01:32:11;19.50;97.20
11043;DHT22;5574;48.786;10.120;2022-07-04T01:34:38;19.40;97.10
11043;DHT22;5574;48.786;10.120;2022-07-04T01:37:05;19.40;97.10
11043;DHT22;5574;48.786;10.120;2022-07-04T01:39:33;19.30;97.20
11043;DHT22;5574;48.786;10.120;2022-07-04T01:42:00;19.20;97.30
11043;DHT22;5574;48.786;10.120;2022-07-04T01:44:27;19.30;97.70
11043;DHT22;5574;48.786;10.120;2022-07-04T01:46:53;19.30;97.50
11043;DHT22;5574;48.786;10.120;2022-07-04T01:49:20;19.30;97.50
11043;DHT22;5574;48.786;10.120;2022-07-04T01:51:48;19.30;97.80
11043;DHT22;5574;48.786;10.120;2022-07-04T01:54:15;19.30;97.40
11043;DHT22;5574;48.786;10.120;2022-07-04T01:56:43;19.30;97.50
11043;DHT22;5574;48.786;10.120;2022-07-04T01:59:10;19.20;97.40
11043;DHT22;5574;48.786;10.120;2022-07-04T02:01:37;19.20;97.80
11043;DHT22;5574;48.786;10.120;2022-07-04T02:04:05;19.20;97.90
11043;DHT22;5574;48.786;10.120;2022-07-04T02:06:32;19.20;97.70
11043;DHT22;5574;48.786;10.120;2022-07-04T02:08:59;19.10;97.40
11043;DHT22;5574;48.786;10.120;2022-07-04T02:11:45;19.10;97.70
11043;DHT22;5574;48.786;10.120;2022-07-04T02:14:29;19.20;98.20
11043;DHT22;5574;48.786;10.120;2022-07-04T02:16:56;19.20;98.00
11043;DHT22;5574;48.786;10.120;2022-07-04T02:19:24;19.30;98.10
11043;DHT22;5574;48.786;10.120;2022-07-04T02:21:50;19.30;98.00
11043;DHT22;5574;48.786;10.120;2022-07-04T02:24:17;19.20;97.90
11043;DHT22;5574;48.786;10.120;2022-07-04T02:26:46;19.10;98.20
11043;DHT22;5574;48.786;10.120;2022-07-04T02:29:13;19.20;98.40
11043;DHT22;5574;48.786;10.120;2022-07-04T02:31:40;19.20;98.40
11043;DHT22;5574;48.786;10.120;2022-07-04T02:34:06;19.10;97.80
11043;DHT22;5574;48.786;10.120;2022-07-04T02:36:33;19.10;98.00
11043;DHT22;5574;48.786;10.120;2022-07-04T02:39:00;19.10;97.90
11043;DHT22;5574;48.786;10.120;2022-07-04T02:41:27;19.10;97.90
11043;DHT22;5574;48.786;10.120;2022-07-04T02:43:55;19.10;98.30
11043;DHT22;5574;48.786;10.120;2022-07-04T02:46:22;19.10;98.30
11043;DHT22;5574;48.786;10.120;2022-07-04T02:48:49;19.10;98.20
11043;DHT22;5574;48.786;10.120;2022-07-04T02:51:15;19.00;98.20
11043;DHT22;5574;48.786;10.120;2022-07-04T02:53:42;19.10;98.50
11043;DHT22;5574;48.786;10.120;2022-07-04T02:56:09;19.00;98.40
11043;DHT22;5574;48.786;10.120;2022-07-04T02:58:36;19.00;98.20
11043;DHT22;5574;48.786;10.120;2022-07-04T03:01:04;18.90;98.20
11043;DHT22;5574;48.786;10.120;2022-07-04T03:03:30;19.00;98.50
11043;DHT22;5574;48.786;10.120;2022-07-04T03:05:57;18.90;98.40
11043;DHT22;5574;48.786;10.120;2022-07-04T03:08:24;18.90;98.50
11043;DHT22;5574;48.786;10.120;2022-07-04T03:10:50;18.90;98.40
11043;DHT22;5574;48.786;10.120;2022-07-04T03:13:17;18.80;98.30
11043;DHT22;5574;48.786;10.120;2022-07-04T03:15:44;18.80;98.30
11043;DHT22;5574;48.786;10.120;2022-07-04T03:18:12;18.80;98.30
11043;DHT22;5574;48.786;10.120;2022-07-04T03:20:39;18.70;98.20
11043;DHT22;5574;48.786;10.120;2022-07-04T03:23:06;18.70;98.20
11043;DHT22;5574;48.786;10.120;2022-07-04T03:25:32;18.60;98.60
11043;DHT22;5574;48.786;10.120;2022-07-04T03:27:59;18.60;98.60
11043;DHT22;5574;48.786;10.120;2022-07-04T03:30:26;18.60;98.80
11043;DHT22;5574;48.786;10.120;2022-07-04T03:32:53;18.70;99.10
11043;DHT22;5574;48.786;10.120;2022-07-04T03:35:21;18.70;98.80
11043;DHT22;5574;48.786;10.120;2022-07-04T03:37:48;18.70;98.80
11043;DHT22;5574;48.786;10.120;2022-07-04T03:40:14;18.70;99.10
11043;DHT22;5574;48.786;10.120;2022-07-04T03:42:41;18.80;99.00
11043;DHT22;5574;48.786;10.120;2022-07-04T03:45:09;18.80;98.90
11043;DHT22;5574;48.786;10.120;2022-07-04T03:47:35;18.90;99.30
11043;DHT22;5574;48.786;10.120;2022-07-04T03:50:03;18.90;99.10
11043;DHT22;5574;48.786;10.120;2022-07-04T03:52:31;18.80;98.80
11043;DHT22;5574;48.786;10.120;2022-07-04T03:54:58;18.80;99.40
11043;DHT22;5574;48.786;10.120;2022-07-04T03:57:24;18.80;99.40
11043;DHT22;5574;48.786;10.120;2022-07-04T03:59:51;18.90;99.50
11043;DHT22;5574;48.786;10.120;2022-07-04T04:02:18;18.90;99.50
11043;DHT22;5574;48.786;10.120;2022-07-04T04:04:45;18.90;99.60
11043;DHT22;5574;48.786;10.120;2022-07-04T04:07:30;19.00;99.70
11043;DHT22;5574;48.786;10.120;2022-07-04T04:09:57;19.00;99.80
11043;DHT22;5574;48.786;10.120;2022-07-04T04:12:23;19.10;99.20
11043;DHT22;5574;48.786;10.120;2022-07-04T04:14:50;19.20;99.60
11043;DHT22;5574;48.786;10.120;2022-07-04T04:17:17;19.20;98.90
11043;DHT22;5574;48.786;10.120;2022-07-04T04:19:44;19.20;99.20
11043;DHT22;5574;48.786;10.120;2022-07-04T04:22:10;19.30;98.60
11043;DHT22;5574;48.786;10.120;2022-07-04T04:24:38;19.30;99.10
11043;DHT22;5574;48.786;10.120;2022-07-04T04:27:05;19.30;98.90
11043;DHT22;5574;48.786;10.120;2022-07-04T04:29:32;19.40;97.90
11043;DHT22;5574;48.786;10.120;2022-07-04T04:31:59;19.40;97.50
11043;DHT22;5574;48.786;10.120;2022-07-04T04:34:25;19.40;98.00
11043;DHT22;5574;48.786;10.120;2022-07-04T04:36:52;19.50;97.50
11043;DHT22;5574;48.786;10.120;2022-07-04T04:39:19;19.50;97.60
11043;DHT22;5574;48.786;10.120;2022-07-04T04:41:47;19.50;97.20
11043;DHT22;5574;48.786;10.120;2022-07-04T04:44:13;19.50;97.20
11043;DHT22;5574;48.786;10.120;2022-07-04T04:46:40;19.50;97.00
11043;DHT22;5574;48.786;10.120;2022-07-04T04:49:07;19.50;96.90
11043;DHT22;5574;48.786;10.120;2022-07-04T04:51:33;19.50;96.90
11043;DHT22;5574;48.786;10.120;2022-07-04T04:54:00;19.40;96.40
11043;DHT22;5574;48.786;10.120;2022-07-04T04:56:27;19.40;96.60
11043;DHT22;5574;48.786;10.120;2022-07-04T04:58:55;19.30;96.60
11043;DHT22;5574;48.786;10.120;2022-07-04T05:01:21;19.30;96.60
11043;DHT22;5574;48.786;10.120;2022-07-04T05:03:48;19.30;96.90
11043;DHT22;5574;48.786;10.120;2022-07-04T05:06:15;19.30;96.60
11043;DHT22;5574;48.786;10.120;2022-07-04T05:08:41;19.30;96.60
11043;DHT22;5574;48.786;10.120;2022-07-04T05:11:08;19.30;96.50
11043;DHT22;5574;48.786;10.120;2022-07-04T05:13:35;19.40;96.50
11043;DHT22;5574;48.786;10.120;2022-07-04T05:16:03;19.40;96.50
11043;DHT22;5574;48.786;10.120;2022-07-04T05:18:30;19.40;96.30
11043;DHT22;5574;48.786;10.120;2022-07-04T05:20:58;19.50;96.40
11043;DHT22;5574;48.786;10.120;2022-07-04T05:23:25;19.50;96.20
11043;DHT22;5574;48.786;10.120;2022-07-04T05:25:51;19.60;96.00
11043;DHT22;5574;48.786;10.120;2022-07-04T05:28:18;19.60;96.00
11043;DHT22;5574;48.786;10.120;2022-07-04T05:30:45;19.70;95.70
11043;DHT22;5574;48.786;10.120;2022-07-04T05:33:13;19.70;95.90
11043;DHT22;5574;48.786;10.120;2022-07-04T05:35:40;19.80;96.10
11043;DHT22;5574;48.786;10.120;2022-07-04T05:38:06;19.80;96.00
11043;DHT22;5574;48.786;10.120;2022-07-04T05:40:33;19.80;95.80
11043;DHT22;5574;48.786;10.120;2022-07-04T05:43:00;19.90;95.80
11043;DHT22;5574;48.786;10.120;2022-07-04T05:45:26;19.90;96.10
11043;DHT22;5574;48.786;10.120;2022-07-04T05:47:53;20.00;96.30
11043;DHT22;5574;48.786;10.120;2022-07-04T05:50:21;20.00;95.60
11043;DHT22;5574;48.786;10.120;2022-07-04T05:52:48;20.10;95.90
11043;DHT22;5574;48.786;10.120;2022-07-04T05:55:15;20.10;95.30
11043;DHT22;5574;48.786;10.120;2022-07-04T05:57:42;20.10;95.40
11043;DHT22;5574;48.786;10.120;2022-07-04T06:00:09;20.20;95.70
11043;DHT22;5574;48.786;10.120;2022-07-04T06:02:37;20.20;95.40
11043;DHT22;5574;48.786;10.120;2022-07-04T06:05:04;20.40;94.90
11043;DHT22;5574;48.786;10.120;2022-07-04T06:07:32;20.40;94.80
11043;DHT22;5574;48.786;10.120;2022-07-04T06:09:59;20.50;95.10
11043;DHT22;5574;48.786;10.120;2022-07-04T06:12:25;20.60;94.90
11043;DHT22;5574;48.786;10.120;2022-07-04T06:14:52;20.60;94.80
11043;DHT22;5574;48.786;10.120;2022-07-04T06:17:19;20.60;95.10
11043;DHT22;5574;48.786;10.120;2022-07-04T06:19:46;20.50;94.70
11043;DHT22;5574;48.786;10.120;2022-07-04T06:22:13;20.60;94.80
11043;DHT22;5574;48.786;10.120;2022-07-04T06:24:41;20.60;95.40
11043;DHT22;5574;48.786;10.120;2022-07-04T06:27:08;20.60;95.10
11043;DHT22;5574;48.786;10.120;2022-07-04T06:29:34;20.60;94.80
11043;DHT22;5574;48.786;10.120;2022-07-04T06:32:01;20.60;94.70
11043;DHT22;5574;48.786;10.120;2022-07-04T06:34:28;20.60;94.80
11043;DHT22;5574;48.786;10.120;2022-07-04T06:37:13;20.60;95.00
11043;DHT22;5574;48.786;10.120;2022-07-04T06:39:41;20.60;94.80
11043;DHT22;5574;48.786;10.120;2022-07-04T06:42:07;20.60;95.10
11043;DHT22;5574;48.786;10.120;2022-07-04T06:44:34;20.60;95.80
11043;DHT22;5574;48.786;10.120;2022-07-04T06:47:01;20.70;95.60
11043;DHT22;5574;48.786;10.120;2022-07-04T06:49:27;20.70;94.90
11043;DHT22;5574;48.786;10.120;2022-07-04T06:51:54;20.70;94.40
11043;DHT22;5574;48.786;10.120;2022-07-04T06:54:21;20.70;94.30
11043;DHT22;5574;48.786;10.120;2022-07-04T06:56:49;20.80;94.70
11043;DHT22;5574;48.786;10.120;2022-07-04T06:59:16;20.80;94.90
11043;DHT22;5574;48.786;10.120;2022-07-04T07:01:43;20.80;94.70
11043;DHT22;5574;48.786;10.120;2022-07-04T07:04:10;20.90;95.00
11043;DHT22;5574;48.786;10.120;2022-07-04T07:06:37;20.90;94.90
11043;DHT22;5574;48.786;10.120;2022-07-04T07:09:03;20.90;95.60
11043;DHT22;5574;48.786;10.120;2022-07-04T07:11:30;21.00;95.10
11043;DHT22;5574;48.786;10.120;2022-07-04T07:13:58;21.00;94.90
11043;DHT22;5574;48.786;10.120;2022-07-04T07:16:25;21.00;95.30
11043;DHT22;5574;48.786;10.120;2022-07-04T07:18:51;20.90;95.20
11043;DHT22;5574;48.786;10.120;2022-07-04T07:21:18;21.00;95.30
11043;DHT22;5574;48.786;10.120;2022-07-04T07:23:45;21.00;95.20
11043;DHT22;5574;48.786;10.120;2022-07-04T07:26:12;21.10;94.40
11043;DHT22;5574;48.786;10.120;2022-07-04T07:28:39;21.10;95.00
11043;DHT22;5574;48.786;10.120;2022-07-04T07:31:07;21.10;94.80
11043;DHT22;5574;48.786;10.120;2022-07-04T07:33:34;21.10;94.40
11043;DHT22;5574;48.786;10.120;2022-07-04T07:36:00;21.10;94.70
11043;DHT22;5574;48.786;10.120;2022-07-04T07:38:27;21.20;95.10
11043;DHT22;5574;48.786;10.120;2022-07-04T07:40:54;21.20;95.50
11043;DHT22;5574;48.786;10.120;2022-07-04T07:43:21;21.30;95.20
11043;DHT22;5574;48.786;10.120;2022-07-04T07:45:47;21.40;95.60
11043;DHT22;5574;48.786;10.120;2022-07-04T07:48:15;21.50;95.00
11043;DHT22;5574;48.786;10.120;2022-07-04T07:50:42;21.50;94.30
11043;DHT22;5574;48.786;10.120;2022-07-04T07:53:09;21.50;95.10
11043;DHT22;5574;48.786;10.120;2022-07-04T07:55:36;21.50;94.60
11043;DHT22;5574;48.786;10.120;2022-07-04T07:58:02;21.50;95.10
11043;DHT22;5574;48.786;10.120;2022-07-04T08:00:29;21.50;95.20
11043;DHT22;5574;48.786;10.120;2022-07-04T08:02:56;21.50;94.90
11043;DHT22;5574;48.786;10.120;2022-07-04T08:05:41;21.50;94.70
11043;DHT22;5574;48.786;10.120;2022-07-04T08:08:08;21.50;95.00
11043;DHT22;5574;48.786;10.120;2022-07-04T08:10:35;21.50;94.80
11043;DHT22;5574;48.786;10.120;2022-07-04T08:13:02;21.60;94.70
11043;DHT22;5574;48.786;10.120;2022-07-04T08:15:29;21.50;94.10
11043;DHT22;5574;48.786;10.120;2022-07-04T08:17:56;21.50;94.60
11043;DHT22;5574;48.786;10.120;2022-07-04T08:20:23;21.60;95.10
11043;DHT22;5574;48.786;10.120;2022-07-04T08:22:51;21.60;95.90
11043;DHT22;5574;48.786;10.120;2022-07-04T08:25:18;21.50;94.60
11043;DHT22;5574;48.786;10.120;2022-07-04T08:27:45;21.50;95.50
11043;DHT22;5574;48.786;10.120;2022-07-04T08:30:12;21.60;95.40
11043;DHT22;5574;48.786;10.120;2022-07-04T08:32:39;21.60;94.90
11043;DHT22;5574;48.786;10.120;2022-07-04T08:35:06;21.60;94.80
11043;DHT22;5574;48.786;10.120;2022-07-04T08:37:33;21.60;95.00
11043;DHT22;5574;48.786;10.120;2022-07-04T08:40:02;21.60;95.00
11043;DHT22;5574;48.786;10.120;2022-07-04T08:42:36;21.60;95.00
11043;DHT22;5574;48.786;10.120;2022-07-04T08:45:04;21.60;95.30
11043;DHT22;5574;48.786;10.120;2022-07-04T08:47:33;21.60;94.90
11043;DHT22;5574;48.786;10.120;2022-07-04T08:50:07;21.60;95.70
11043;DHT22;5574;48.786;10.120;2022-07-04T08:52:37;21.70;95.30
11043;DHT22;5574;48.786;10.120;2022-07-04T08:55:07;21.60;94.70
11043;DHT22;5574;48.786;10.120;2022-07-04T08:57:51;21.70;95.10
11043;DHT22;5574;48.786;10.120;2022-07-04T09:00:36;21.70;95.10
11043;DHT22;5574;48.786;10.120;2022-07-04T09:03:04;21.70;94.50
11043;DHT22;5574;48.786;10.120;2022-07-04T09:05:32;21.80;94.80
11043;DHT22;5574;48.786;10.120;2022-07-04T09:07:59;21.90;95.40
11043;DHT22;5574;48.786;10.120;2022-07-04T09:10:28;22.00;94.50
11043;DHT22;5574;48.786;10.120;2022-07-04T09:12:55;22.10;94.40
11043;DHT22;5574;48.786;10.120;2022-07-04T09:15:22;22.30;94.50
11043;DHT22;5574;48.786;10.120;2022-07-04T09:17:49;22.40;93.60
11043;DHT22;5574;48.786;10.120;2022-07-04T09:20:16;22.40;93.10
11043;DHT22;5574;48.786;10.120;2022-07-04T09:22:45;22.50;93.70
11043;DHT22;5574;48.786;10.120;2022-07-04T09:25:12;22.80;93.20
11043;DHT22;5574;48.786;10.120;2022-07-04T09:27:43;22.90;92.80
11043;DHT22;5574;48.786;10.120;2022-07-04T09:30:11;22.90;92.80
11043;DHT22;5574;48.786;10.120;2022-07-04T09:32:39;23.00;93.00
11043;DHT22;5574;48.786;10.120;2022-07-04T09:35:08;23.20;93.40
11043;DHT22;5574;48.786;10.120;2022-07-04T09:37:36;23.20;91.90
11043;DHT22;5574;48.786;10.120;2022-07-04T09:40:06;23.40;94.20
11043;DHT22;5574;48.786;10.120;2022-07-04T09:42:37;23.40;92.80
11043;DHT22;5574;48.786;10.120;2022-07-04T09:45:08;23.40;91.80
11043;DHT22;5574;48.786;10.120;2022-07-04T09:47:35;23.30;91.70
11043;DHT22;5574;48.786;10.120;2022-07-04T09:50:04;23.10;92.20
11043;DHT22;5574;48.786;10.120;2022-07-04T09:52:32;23.10;92.40
11043;DHT22;5574;48.786;10.120;2022-07-04T09:55:00;23.00;92.50
11043;DHT22;5574;48.786;10.120;2022-07-04T09:57:29;22.90;92.50
11043;DHT22;5574;48.786;10.120;2022-07-04T09:59:56;22.80;91.70
11043;DHT22;5574;48.786;10.120;2022-07-04T10:02:24;22.70;91.60
11043;DHT22;5574;48.786;10.120;2022-07-04T10:04:52;22.60;92.60
11043;DHT22;5574;48.786;10.120;2022-07-04T10:07:33;22.60;92.30
11043;DHT22;5574;48.786;10.120;2022-07-04T10:10:04;22.50;91.40
11043;DHT22;5574;48.786;10.120;2022-07-04T10:12:48;22.50;92.10
11043;DHT22;5574;48.786;10.120;2022-07-04T10:15:15;22.50;93.10
11043;DHT22;5574;48.786;10.120;2022-07-04T10:17:43;22.50;91.10
11043;DHT22;5574;48.786;10.120;2022-07-04T10:20:11;22.50;91.70
11043;DHT22;5574;48.786;10.120;2022-07-04T10:22:39;22.50;92.50
11043;DHT22;5574;48.786;10.120;2022-07-04T10:25:08;22.50;92.90
11043;DHT22;5574;48.786;10.120;2022-07-04T10:27:35;22.60;92.70
11043;DHT22;5574;48.786;10.120;2022-07-04T10:30:04;22.70;92.30
11043;DHT22;5574;48.786;10.120;2022-07-04T10:32:32;22.70;92.00
11043;DHT22;5574;48.786;10.120;2022-07-04T10:35:00;22.90;92.60
11043;DHT22;5574;48.786;10.120;2022-07-04T10:37:58;23.20;92.70
11043;DHT22;5574;48.786;10.120;2022-07-04T10:40:43;23.30;92.50
11043;DHT22;5574;48.786;10.120;2022-07-04T10:43:46;23.40;91.70
11043;DHT22;5574;48.786;10.120;2022-07-04T10:46:45;23.40;91.60
11043;DHT22;5574;48.786;10.120;2022-07-04T10:49:26;23.50;92.00
11043;DHT22;5574;48.786;10.120;2022-07-04T10:51:56;23.80;91.00
11043;DHT22;5574;48.786;10.120;2022-07-04T10:54:32;24.00;91.80
11043;DHT22;5574;48.786;10.120;2022-07-04T10:57:09;23.90;90.00
11043;DHT22;5574;48.786;10.120;2022-07-04T10:59:36;24.00;91.10
11043;DHT22;5574;48.786;10.120;2022-07-04T11:02:28;24.20;88.90
11043;DHT22;5574;48.786;10.120;2022-07-04T11:05:02;24.50;89.70
11043;DHT22;5574;48.786;10.120;2022-07-04T11:08:01;24.80;90.50
11043;DHT22;5574;48.786;10.120;2022-07-04T11:10:31;25.00;88.40
11043;DHT22;5574;48.786;10.120;2022-07-04T11:13:07;25.10;87.90
11043;DHT22;5574;48.786;10.120;2022-07-04T11:16:00;25.20;88.70
11043;DHT22;5574;48.786;10.120;2022-07-04T11:18:27;25.40;85.70
11043;DHT22;5574;48.786;10.120;2022-07-04T11:20:54;25.50;86.00
11043;DHT22;5574;48.786;10.120;2022-07-04T11:23:22;25.80;84.90
11043;DHT22;5574;48.786;10.120;2022-07-04T11:25:50;25.80;84.30
11043;DHT22;5574;48.786;10.120;2022-07-04T11:28:19;25.90;84.70
11043;DHT22;5574;48.786;10.120;2022-07-04T11:30:48;26.00;83.20
11043;DHT22;5574;48.786;10.120;2022-07-04T11:33:17;26.10;83.20
11043;DHT22;5574;48.786;10.120;2022-07-04T11:36:01;26.10;83.20
11043;DHT22;5574;48.786;10.120;2022-07-04T11:38:46;26.20;82.00
11043;DHT22;5574;48.786;10.120;2022-07-04T11:41:13;26.30;83.50
11043;DHT22;5574;48.786;10.120;2022-07-04T11:43:57;26.40;83.60
11043;DHT22;5574;48.786;10.120;2022-07-04T11:46:38;26.40;83.50
11043;DHT22;5574;48.786;10.120;2022-07-04T11:49:08;26.50;82.90
11043;DHT22;5574;48.786;10.120;2022-07-04T11:51:35;26.60;82.70
11043;DHT22;5574;48.786;10.120;2022-07-04T11:54:08;26.60;80.80
11043;DHT22;5574;48.786;10.120;2022-07-04T11:56:35;26.70;78.80
11043;DHT22;5574;48.786;10.120;2022-07-04T11:59:10;26.80;81.10
11043;DHT22;5574;48.786;10.120;2022-07-04T12:01:38;26.80;83.80
11043;DHT22;5574;48.786;10.120;2022-07-04T12:04:12;26.90;79.00
11043;DHT22;5574;48.786;10.120;2022-07-04T12:06:40;27.10;81.80
11043;DHT22;5574;48.786;10.120;2022-07-04T12:09:08;27.20;80.90
11043;DHT22;5574;48.786;10.120;2022-07-04T12:11:50;27.10;79.00
11043;DHT22;5574;48.786;10.120;2022-07-04T12:14:17;27.20;79.90
11043;DHT22;5574;48.786;10.120;2022-07-04T12:16:44;27.30;79.60
11043;DHT22;5574;48.786;10.120;2022-07-04T12:19:12;27.40;78.80
11043;DHT22;5574;48.786;10.120;2022-07-04T12:21:42;27.40;79.00
11043;DHT22;5574;48.786;10.120;2022-07-04T12:24:10;27.50;83.10
11043;DHT22;5574;48.786;10.120;2022-07-04T12:26:45;27.60;79.30
11043;DHT22;5574;48.786;10.120;2022-07-04T12:29:20;27.50;79.40
11043;DHT22;5574;48.786;10.120;2022-07-04T12:31:51;27.60;81.80
11043;DHT22;5574;48.786;10.120;2022-07-04T12:34:19;27.50;80.90
11043;DHT22;5574;48.786;10.120;2022-07-04T12:36:51;27.60;84.50
11043;DHT22;5574;48.786;10.120;2022-07-04T12:39:33;27.70;80.10
11043;DHT22;5574;48.786;10.120;2022-07-04T12:42:07;27.40;77.20
11043;DHT22;5574;48.786;10.120;2022-07-04T12:44:34;27.30;77.40
11043;DHT22;5574;48.786;10.120;2022-07-04T12:47:03;27.40;80.80
11043;DHT22;5574;48.786;10.120;2022-07-04T12:49:30;27.60;80.30
11043;DHT22;5574;48.786;10.120;2022-07-04T12:52:08;27.80;81.50
11043;DHT22;5574;48.786;10.120;2022-07-04T12:54:37;27.90;82.10
11043;DHT22;5574;48.786;10.120;2022-07-04T12:57:06;28.00;78.50
11043;DHT22;5574;48.786;10.120;2022-07-04T12:59:33;28.00;77.50
11043;DHT22;5574;48.786;10.120;2022-07-04T13:02:00;27.90;79.40
11043;DHT22;5574;48.786;10.120;2022-07-04T13:04:27;27.70;81.40
11043;DHT22;5574;48.786;10.120;2022-07-04T13:06:56;27.70;81.60
11043;DHT22;5574;48.786;10.120;2022-07-04T13:09:24;27.70;79.20
11043;DHT22;5574;48.786;10.120;2022-07-04T13:11:52;27.50;77.30
11043;DHT22;5574;48.786;10.120;2022-07-04T13:14:36;27.30;79.30
11043;DHT22;5574;48.786;10.120;2022-07-04T13:17:03;26.90;80.60
11043;DHT22;5574;48.786;10.120;2022-07-04T13:19:30;26.70;79.30
11043;DHT22;5574;48.786;10.120;2022-07-04T13:21:56;26.80;80.30
11043;DHT22;5574;48.786;10.120;2022-07-04T13:24:23;27.00;78.70
11043;DHT22;5574;48.786;10.120;2022-07-04T13:26:50;27.20;77.40
11043;DHT22;5574;48.786;10.120;2022-07-04T13:29:18;27.30;80.00
11043;DHT22;5574;48.786;10.120;2022-07-04T13:31:44;27.50;77.30
11043;DHT22;5574;48.786;10.120;2022-07-04T13:34:11;27.50;77.20
11043;DHT22;5574;48.786;10.120;2022-07-04T13:36:38;27.40;76.00
11043;DHT22;5574;48.786;10.120;2022-07-04T13:39:04;27.20;77.70
11043;DHT22;5574;48.786;10.120;2022-07-04T13:41:31;26.90;82.40
11043;DHT22;5574;48.786;10.120;2022-07-04T13:43:59;27.20;82.90
11043;DHT22;5574;48.786;10.120;2022-07-04T13:46:28;27.30;81.80
11043;DHT22;5574;48.786;10.120;2022-07-04T13:48:54;27.50;79.60
11043;DHT22;5574;48.786;10.120;2022-07-04T13:51:21;27.40;80.80
11043;DHT22;5574;48.786;10.120;2022-07-04T13:53:48;27.30;80.50
11043;DHT22;5574;48.786;10.120;2022-07-04T13:56:15;27.20;80.20
11043;DHT22;5574;48.786;10.120;2022-07-04T13:58:44;27.10;79.30
11043;DHT22;5574;48.786;10.120;2022-07-04T14:01:11;27.10;79.70
11043;DHT22;5574;48.786;10.120;2022-07-04T14:03:40;27.00;78.20
11043;DHT22;5574;48.786;10.120;2022-07-04T14:06:08;27.00;79.70
11043;DHT22;5574;48.786;10.120;2022-07-04T14:08:35;27.10;78.20
11043;DHT22;5574;48.786;10.120;2022-07-04T14:11:02;26.90;78.20
11043;DHT22;5574;48.786;10.120;2022-07-04T14:13:28;27.10;77.60
11043;DHT22;5574;48.786;10.120;2022-07-04T14:15:55;27.20;78.10
11043;DHT22;5574;48.786;10.120;2022-07-04T14:18:22;27.30;77.90
11043;DHT22;5574;48.786;10.120;2022-07-04T14:20:50;27.30;77.10
11043;DHT22;5574;48.786;10.120;2022-07-04T14:23:17;27.30;75.90
11043;DHT22;5574;48.786;10.120;2022-07-04T14:26:05;27.10;76.00
11043;DHT22;5574;48.786;10.120;2022-07-04T14:28:32;27.10;76.80
11043;DHT22;5574;48.786;10.120;2022-07-04T14:30:59;27.00;76.90
11043;DHT22;5574;48.786;10.120;2022-07-04T14:33:26;26.90;78.50
11043;DHT22;5574;48.786;10.120;2022-07-04T14:35:54;27.10;78.30
11043;DHT22;5574;48.786;10.120;2022-07-04T14:38:21;27.30;75.70
11043;DHT22;5574;48.786;10.120;2022-07-04T14:40:47;27.50;77.00
11043;DHT22;5574;48.786;10.120;2022-07-04T14:43:15;27.70;73.20
11043;DHT22;5574;48.786;10.120;2022-07-04T14:45:43;27.70;74.10
11043;DHT22;5574;48.786;10.120;2022-07-04T14:48:10;27.80;73.50
11043;DHT22;5574;48.786;10.120;2022-07-04T14:50:37;27.90;69.70
11043;DHT22;5574;48.786;10.120;2022-07-04T14:53:05;27.80;70.60
11043;DHT22;5574;48.786;10.120;2022-07-04T14:55:31;27.90;71.00
11043;DHT22;5574;48.786;10.120;2022-07-04T14:57:58;27.80;71.80
11043;DHT22;5574;48.786;10.120;2022-07-04T15:00:25;27.80;73.90
11043;DHT22;5574;48.786;10.120;2022-07-04T15:02:52;27.60;72.40
11043;DHT22;5574;48.786;10.120;2022-07-04T15:05:19;27.30;71.20
11043;DHT22;5574;48.786;10.120;2022-07-04T15:07:45;27.00;71.80
11043;DHT22;5574;48.786;10.120;2022-07-04T15:10:13;27.00;74.50
11043;DHT22;5574;48.786;10.120;2022-07-04T15:12:40;27.10;74.40
11043;DHT22;5574;48.786;10.120;2022-07-04T15:15:08;27.30;72.20
11043;DHT22;5574;48.786;10.120;2022-07-04T15:17:35;27.30;71.80
11043;DHT22;5574;48.786;10.120;2022-07-04T15:20:02;27.30;72.20
11043;DHT22;5574;48.786;10.120;2022-07-04T15:22:46;27.40;75.30
11043;DHT22;5574;48.786;10.120;2022-07-04T15:25:32;27.40;72.10
11043;DHT22;5574;48.786;10.120;2022-07-04T15:27:59;27.30;72.50
11043;DHT22;5574;48.786;10.120;2022-07-04T15:30:25;27.40;73.60
11043;DHT22;5574;48.786;10.120;2022-07-04T15:32:52;27.40;73.90
11043;DHT22;5574;48.786;10.120;2022-07-04T15:35:19;27.30;71.50
11043;DHT22;5574;48.786;10.120;2022-07-04T15:37:45;27.20;70.00
11043;DHT22;5574;48.786;10.120;2022-07-04T15:40:12;27.20;70.20